createdAt,value
2022-12-28T00:00:09.979Z,4.1
2022-12-28T00:03:10.011Z,4.1
2022-12-28T00:06:09.674Z,4
2022-12-28T00:09:09.601Z,4
2022-12-28T00:12:09.672Z,4.1
2022-12-28T00:15:09.856Z,4.2
2022-12-28T00:18:09.708Z,4.2
2022-12-28T00:21:09.632Z,4.2
2022-12-28T00:24:09.678Z,4.2
2022-12-28T00:27:09.709Z,4.2
2022-12-28T00:30:09.790Z,4.1
2022-12-28T00:33:09.683Z,4.2
2022-12-28T00:36:09.697Z,4.1
2022-12-28T00:39:09.683Z,4.1
2022-12-28T00:42:09.649Z,4.1
2022-12-28T00:45:09.682Z,4.2
2022-12-28T00:48:09.695Z,4.2
2022-12-28T00:51:09.649Z,4.2
2022-12-28T00:54:09.712Z,4.1
2022-12-28T00:57:09.718Z,4.2
2022-12-28T01:00:09.818Z,4.2
2022-12-28T01:03:10.698Z,4.2
2022-12-28T01:06:09.641Z,4.2
2022-12-28T01:09:09.701Z,4.3
2022-12-28T01:12:09.642Z,4.3
2022-12-28T01:15:09.626Z,4.2
2022-12-28T01:18:14.843Z,4.1
2022-12-28T01:21:09.635Z,4.2
2022-12-28T01:24:09.723Z,4.2
2022-12-28T01:27:09.672Z,4.1
2022-12-28T01:30:09.629Z,4.1
2022-12-28T01:33:09.651Z,4.1
2022-12-28T01:36:09.645Z,4.1
2022-12-28T01:39:09.612Z,4.1
2022-12-28T01:42:10.979Z,4.1
2022-12-28T01:45:09.691Z,4.1
2022-12-28T01:48:11.080Z,4.2
2022-12-28T01:51:09.616Z,4.1
2022-12-28T01:54:09.738Z,4.2
2022-12-28T01:57:09.683Z,4.2
2022-12-28T02:00:09.709Z,4.2
2022-12-28T02:03:10.175Z,4.2
2022-12-28T02:06:11.160Z,4.2
2022-12-28T02:09:09.692Z,4.2
2022-12-28T02:12:09.690Z,4.2
2022-12-28T02:15:09.625Z,4.2
2022-12-28T02:18:09.672Z,4.3
2022-12-28T02:21:09.682Z,4.2
2022-12-28T02:24:09.623Z,4.3
2022-12-28T02:27:09.796Z,4.4
2022-12-28T02:30:09.771Z,4.4
2022-12-28T02:33:09.720Z,4.4
2022-12-28T02:36:16.305Z,4.4
2022-12-28T02:39:09.627Z,4.4
2022-12-28T02:42:09.717Z,4.4
2022-12-28T02:45:09.907Z,4.5
2022-12-28T02:48:09.827Z,4.6
2022-12-28T02:51:09.705Z,4.5
2022-12-28T02:54:09.692Z,4.6
2022-12-28T02:57:09.660Z,4.6
2022-12-28T03:00:09.809Z,4.6
2022-12-28T03:03:10.010Z,4.5
2022-12-28T03:06:10.763Z,4.5
2022-12-28T03:09:09.599Z,4.6
2022-12-28T03:12:10.131Z,4.6
2022-12-28T03:15:09.691Z,4.6
2022-12-28T03:18:09.801Z,4.6
2022-12-28T03:21:09.874Z,4.7
2022-12-28T03:24:09.724Z,4.8
2022-12-28T03:27:10.237Z,4.9
2022-12-28T03:30:09.706Z,4.9
2022-12-28T03:33:09.688Z,4.9
2022-12-28T03:36:09.638Z,4.9
2022-12-28T03:39:09.676Z,5.1
2022-12-28T03:42:09.667Z,5.1
2022-12-28T03:45:09.737Z,5.2
2022-12-28T03:48:09.686Z,5.2
2022-12-28T03:51:09.690Z,5.3
2022-12-28T03:54:09.710Z,5.4
2022-12-28T03:57:09.832Z,5.4
2022-12-28T04:00:09.711Z,5.4
2022-12-28T04:03:10.062Z,5.4
2022-12-28T04:06:09.653Z,5.4
2022-12-28T04:09:09.678Z,5.4
2022-12-28T04:12:10.234Z,5.4
2022-12-28T04:15:09.619Z,5.4
2022-12-28T04:18:09.830Z,5.4
2022-12-28T04:21:09.677Z,5.4
2022-12-28T04:24:09.599Z,5.4
2022-12-28T04:27:09.691Z,5.4
2022-12-28T04:30:09.711Z,5.4
2022-12-28T04:33:09.701Z,5.4
2022-12-28T04:36:09.669Z,5.4
2022-12-28T04:39:09.770Z,5.4
2022-12-28T04:42:09.703Z,5.4
2022-12-28T04:45:09.628Z,5.4
2022-12-28T04:48:09.735Z,5.4
2022-12-28T04:51:09.823Z,5.4
2022-12-28T04:54:09.679Z,5.4
2022-12-28T04:57:09.720Z,5.4
2022-12-28T05:00:09.822Z,5.4
2022-12-28T05:03:13.481Z,5.4
2022-12-28T05:06:09.652Z,5.5
2022-12-28T05:09:09.665Z,5.4
2022-12-28T05:12:09.835Z,5.4
2022-12-28T05:15:09.709Z,5.4
2022-12-28T05:18:09.656Z,5.5
2022-12-28T05:21:09.675Z,5.6
2022-12-28T05:24:09.685Z,5.6
2022-12-28T05:27:09.639Z,5.5
2022-12-28T05:30:09.695Z,5.6
2022-12-28T05:33:10.218Z,5.5
2022-12-28T05:36:09.816Z,5.5
2022-12-28T05:39:09.753Z,5.4
2022-12-28T05:42:09.696Z,5.5
2022-12-28T05:45:09.682Z,5.5
2022-12-28T05:48:09.652Z,5.6
2022-12-28T05:51:09.632Z,5.6
2022-12-28T05:54:09.637Z,5.7
2022-12-28T05:57:09.650Z,5.7
2022-12-28T06:00:09.684Z,5.8
2022-12-28T06:03:10.370Z,5.8
2022-12-28T06:06:09.645Z,5.9
2022-12-28T06:09:10.004Z,5.9
2022-12-28T06:12:09.674Z,5.9
2022-12-28T06:15:09.709Z,5.9
2022-12-28T06:18:09.696Z,6
2022-12-28T06:21:09.655Z,6.1
2022-12-28T06:24:09.670Z,6.1
2022-12-28T06:27:09.623Z,6.3
2022-12-28T06:30:09.690Z,6.4
2022-12-28T06:33:09.632Z,6.5
2022-12-28T06:36:12.355Z,6.7
2022-12-28T06:39:09.676Z,6.7
2022-12-28T06:42:09.704Z,6.7
2022-12-28T06:45:09.587Z,6.7
2022-12-28T06:48:09.602Z,6.7
2022-12-28T06:51:09.734Z,6.7
2022-12-28T06:54:09.731Z,6.8
2022-12-28T06:57:10.442Z,6.8
2022-12-28T07:00:09.787Z,6.8
2022-12-28T07:03:09.923Z,6.8
2022-12-28T07:06:09.726Z,6.7
2022-12-28T07:09:09.791Z,6.7
2022-12-28T07:12:09.852Z,6.7
2022-12-28T07:15:09.877Z,6.6
2022-12-28T07:18:09.687Z,6.5
2022-12-28T07:21:09.695Z,6.5
2022-12-28T07:24:09.820Z,6.5
2022-12-28T07:27:10.208Z,6.6
2022-12-28T07:30:09.744Z,6.6
2022-12-28T07:33:09.746Z,6.7
2022-12-28T07:36:09.713Z,6.7
2022-12-28T07:39:09.899Z,6.7
2022-12-28T07:42:09.735Z,6.8
2022-12-28T07:45:09.801Z,6.8
2022-12-28T07:48:09.734Z,6.8
2022-12-28T07:51:09.807Z,6.9
2022-12-28T07:54:09.751Z,6.8
2022-12-28T07:57:09.731Z,6.7
2022-12-28T08:00:09.794Z,6.6
2022-12-28T08:03:09.767Z,6.7
2022-12-28T08:06:09.711Z,6.7
2022-12-28T08:09:09.884Z,6.8
2022-12-28T08:12:09.728Z,6.9
2022-12-28T08:15:09.843Z,7
2022-12-28T08:18:09.725Z,7.1
2022-12-28T08:21:09.731Z,7.1
2022-12-28T08:24:09.828Z,7.2
2022-12-28T08:27:09.699Z,7.2
2022-12-28T08:30:09.833Z,7.2
2022-12-28T08:33:09.756Z,7.3
2022-12-28T08:36:09.791Z,7.3
2022-12-28T08:39:09.703Z,7.4
2022-12-28T08:42:10.032Z,7.4
2022-12-28T08:45:09.725Z,7.4
2022-12-28T08:48:09.761Z,7.4
2022-12-28T08:51:09.690Z,7.4
2022-12-28T08:54:09.846Z,7.4
2022-12-28T08:57:09.718Z,7.4
2022-12-28T09:00:09.825Z,7.4
2022-12-28T09:03:10.638Z,7.5
2022-12-28T09:06:09.698Z,7.6
2022-12-28T09:09:16.001Z,7.6
2022-12-28T09:12:09.718Z,7.6
2022-12-28T09:15:09.859Z,7.7
2022-12-28T09:18:09.805Z,7.7
2022-12-28T09:21:09.689Z,7.7
2022-12-28T09:24:09.741Z,7.7
2022-12-28T09:27:09.663Z,7.7
2022-12-28T09:30:09.808Z,7.7
2022-12-28T09:33:09.735Z,7.7
2022-12-28T09:36:09.784Z,7.8
2022-12-28T09:39:09.906Z,7.8
2022-12-28T09:42:09.844Z,7.9
2022-12-28T09:45:09.799Z,7.9
2022-12-28T09:48:09.720Z,8
2022-12-28T09:51:09.842Z,8.1
2022-12-28T09:54:09.754Z,8.1
2022-12-28T09:57:09.680Z,8.1
2022-12-28T10:00:09.803Z,8.1
2022-12-28T10:03:10.139Z,8.1
2022-12-28T10:06:09.761Z,8.1
2022-12-28T10:09:09.797Z,8
2022-12-28T10:12:09.801Z,7.9
2022-12-28T10:15:09.812Z,8.1
2022-12-28T10:18:09.703Z,8.4
2022-12-28T10:21:09.687Z,8.9
2022-12-28T10:24:41.866Z,9.2
2022-12-28T10:27:09.773Z,9.4
2022-12-28T10:30:09.776Z,9.3
2022-12-28T10:33:19.389Z,8.8
2022-12-28T10:36:10.665Z,8.5
2022-12-28T10:39:09.743Z,8.3
2022-12-28T10:42:10.887Z,8.3
2022-12-28T10:45:10.110Z,8.3
2022-12-28T10:48:09.711Z,8.4
2022-12-28T10:51:09.738Z,8.4
2022-12-28T10:54:09.699Z,8.5
2022-12-28T10:57:10.704Z,8.6
2022-12-28T11:00:09.808Z,8.6
2022-12-28T11:03:10.910Z,8.6
2022-12-28T11:06:09.760Z,8.8
2022-12-28T11:09:09.736Z,9.1
2022-12-28T11:12:09.792Z,9.5
2022-12-28T11:15:09.722Z,9.6
2022-12-28T11:18:10.621Z,9.7
2022-12-28T11:21:09.690Z,9.6
2022-12-28T11:24:09.668Z,9.9
2022-12-28T11:27:09.693Z,9.8
2022-12-28T11:30:18.088Z,9.5
2022-12-28T11:33:09.725Z,9.3
2022-12-28T11:36:17.194Z,9.1
2022-12-28T11:39:09.725Z,9.1
2022-12-28T11:42:49.541Z,9.2
2022-12-28T11:45:09.815Z,9.1
2022-12-28T11:48:09.766Z,8.9
2022-12-28T11:51:09.702Z,8.9
2022-12-28T11:54:09.728Z,8.8
2022-12-28T11:57:09.712Z,8.8
2022-12-28T12:00:09.827Z,8.8
2022-12-28T12:03:10.519Z,8.7
2022-12-28T12:06:09.701Z,8.7
2022-12-28T12:09:09.712Z,8.7
2022-12-28T12:12:11.937Z,8.8
2022-12-28T12:15:09.771Z,8.8
2022-12-28T12:18:10.844Z,8.8
2022-12-28T12:21:18.472Z,8.8
2022-12-28T12:24:09.724Z,8.8
2022-12-28T12:27:18.113Z,8.8
2022-12-28T12:30:09.870Z,8.9
2022-12-28T12:33:09.982Z,8.9
2022-12-28T12:36:09.690Z,9
2022-12-28T12:39:09.841Z,9.1
2022-12-28T12:42:09.733Z,9.1
2022-12-28T12:45:09.757Z,9.1
2022-12-28T12:48:09.652Z,9.2
2022-12-28T12:51:09.758Z,9.2
2022-12-28T12:54:09.791Z,9.2
2022-12-28T12:57:09.698Z,9.1
2022-12-28T13:00:09.786Z,9.1
2022-12-28T13:03:10.221Z,9.1
2022-12-28T13:06:09.752Z,9.1
2022-12-28T13:09:15.051Z,9
2022-12-28T13:12:09.735Z,9
2022-12-28T13:15:17.504Z,9.1
2022-12-28T13:18:54.160Z,9.2
2022-12-28T13:21:17.497Z,9.3
2022-12-28T13:24:09.768Z,9.2
2022-12-28T13:27:17.159Z,9.1
2022-12-28T13:30:09.860Z,9.1
2022-12-28T13:33:09.841Z,9.1
2022-12-28T13:36:09.754Z,9.1
2022-12-28T13:39:09.667Z,9.1
2022-12-28T13:42:09.691Z,9.1
2022-12-28T13:45:09.719Z,9.2
2022-12-28T13:48:09.716Z,9.2
2022-12-28T13:51:10.591Z,9.2
2022-12-28T13:54:11.033Z,9.1
2022-12-28T14:00:09.897Z,9.1
2022-12-28T14:03:09.721Z,9.1
2022-12-28T14:06:09.695Z,9.1
2022-12-28T14:09:14.927Z,9.1
2022-12-28T14:12:09.628Z,9
2022-12-28T14:15:09.882Z,8.9
2022-12-28T14:18:09.704Z,8.9
2022-12-28T14:21:09.731Z,8.9
2022-12-28T14:24:09.732Z,8.9
2022-12-28T14:27:09.734Z,8.8
2022-12-28T14:30:10.142Z,8.8
2022-12-28T14:33:26.507Z,8.8
2022-12-28T14:36:09.816Z,8.8
2022-12-28T14:42:10.984Z,8.8
2022-12-28T14:45:10.921Z,8.8
2022-12-28T14:48:09.828Z,8.8
2022-12-28T14:51:09.773Z,8.8
2022-12-28T14:54:11.121Z,8.8
2022-12-28T14:57:09.757Z,8.8
2022-12-28T15:00:09.928Z,8.8
2022-12-28T15:03:11.293Z,8.7
2022-12-28T15:06:09.806Z,8.8
2022-12-28T15:09:09.763Z,8.8
2022-12-28T15:12:17.708Z,8.8
2022-12-28T15:15:10.852Z,8.8
2022-12-28T15:18:11.032Z,8.8
2022-12-28T15:21:10.026Z,8.8
2022-12-28T15:24:09.685Z,8.8
2022-12-28T15:27:09.699Z,8.8
2022-12-28T15:30:33.373Z,8.8
2022-12-28T15:33:09.691Z,8.8
2022-12-28T15:36:17.780Z,8.7
2022-12-28T15:39:09.753Z,8.8
2022-12-28T15:42:09.749Z,8.8
2022-12-28T15:45:09.718Z,8.8
2022-12-28T15:48:09.766Z,8.8
2022-12-28T15:51:09.684Z,8.8
2022-12-28T15:54:09.649Z,8.7
2022-12-28T15:57:09.710Z,8.7
2022-12-28T16:00:09.897Z,8.6
2022-12-28T16:03:10.693Z,8.7
2022-12-28T16:06:09.668Z,8.7
2022-12-28T16:09:09.769Z,8.7
2022-12-28T16:12:09.723Z,8.8
2022-12-28T16:15:09.837Z,8.8
2022-12-28T16:18:09.680Z,8.8
2022-12-28T16:21:11.126Z,8.8
2022-12-28T16:24:09.632Z,8.8
2022-12-28T16:27:09.777Z,8.8
2022-12-28T16:30:09.805Z,8.8
2022-12-28T16:33:09.771Z,8.7
2022-12-28T16:36:09.701Z,8.7
2022-12-28T16:39:09.710Z,8.6
2022-12-28T16:42:09.665Z,8.6
2022-12-28T16:45:09.802Z,8.6
2022-12-28T16:48:09.671Z,8.6
2022-12-28T16:51:09.751Z,8.6
2022-12-28T16:54:09.666Z,8.6
2022-12-28T16:57:09.763Z,8.6
2022-12-28T17:00:10.191Z,8.6
2022-12-28T17:03:10.492Z,8.6
2022-12-28T17:06:09.699Z,8.6
2022-12-28T17:09:09.758Z,8.6
2022-12-28T17:12:09.760Z,8.4
2022-12-28T17:15:14.455Z,8.5
2022-12-28T17:18:09.783Z,8.5
2022-12-28T17:21:16.100Z,8.4
2022-12-28T17:24:09.828Z,8.4
2022-12-28T17:27:25.281Z,8.5
2022-12-28T17:30:09.817Z,8.5
2022-12-28T17:33:09.872Z,8.5
2022-12-28T17:36:09.699Z,8.5
2022-12-28T17:39:09.706Z,8.5
2022-12-28T17:42:09.739Z,8.4
2022-12-28T17:45:20.234Z,8.4
2022-12-28T17:48:09.766Z,8.4
2022-12-28T17:51:15.956Z,8.4
2022-12-28T17:54:09.730Z,8.5
2022-12-28T17:57:09.728Z,8.6
2022-12-28T18:00:09.713Z,8.6
2022-12-28T18:03:10.572Z,8.6
2022-12-28T18:06:09.683Z,8.6
2022-12-28T18:09:09.763Z,8.7
2022-12-28T18:12:09.802Z,8.8
2022-12-28T18:15:09.767Z,8.7
2022-12-28T18:18:09.736Z,8.6
2022-12-28T18:21:09.778Z,8.7
2022-12-28T18:24:09.711Z,8.7
2022-12-28T18:27:09.686Z,8.6
2022-12-28T18:30:09.743Z,8.7
2022-12-28T18:33:09.731Z,8.7
2022-12-28T18:36:17.276Z,8.8
2022-12-28T18:39:09.699Z,8.8
2022-12-28T18:42:09.730Z,8.7
2022-12-28T18:45:09.651Z,8.7
2022-12-28T18:48:09.748Z,8.6
2022-12-28T18:51:09.823Z,8.6
2022-12-28T18:54:09.803Z,8.6
2022-12-28T18:57:09.744Z,8.6
2022-12-28T19:00:09.972Z,8.6
2022-12-28T19:03:11.031Z,8.6
2022-12-28T19:06:12.262Z,8.6
2022-12-28T19:09:09.684Z,8.6
2022-12-28T19:12:09.700Z,8.6
2022-12-28T19:15:09.708Z,8.5
2022-12-28T19:18:09.691Z,8.4
2022-12-28T19:21:09.744Z,8.4
2022-12-28T19:24:09.677Z,8.4
2022-12-28T19:27:09.771Z,8.4
2022-12-28T19:30:09.806Z,8.4
2022-12-28T19:33:09.778Z,8.4
2022-12-28T19:36:09.793Z,8.4
2022-12-28T19:39:09.749Z,8.4
2022-12-28T19:42:09.934Z,8.4
2022-12-28T19:45:18.767Z,8.4
2022-12-28T19:48:09.737Z,8.4
2022-12-28T19:51:09.757Z,8.6
2022-12-28T19:54:09.930Z,8.6
2022-12-28T19:57:09.723Z,8.6
2022-12-28T20:00:09.757Z,8.6
2022-12-28T20:03:10.662Z,8.6
2022-12-28T20:06:09.675Z,8.6
2022-12-28T20:09:09.728Z,8.6
2022-12-28T20:12:09.662Z,8.7
2022-12-28T20:15:09.755Z,8.7
2022-12-28T20:18:09.760Z,8.6
2022-12-28T20:21:29.985Z,8.6
2022-12-28T20:24:09.724Z,8.7
2022-12-28T20:27:10.993Z,8.6
2022-12-28T20:30:09.739Z,8.6
2022-12-28T20:33:09.658Z,8.6
2022-12-28T20:36:09.787Z,8.7
2022-12-28T20:39:09.760Z,8.7
2022-12-28T20:42:09.742Z,8.8
2022-12-28T20:45:09.753Z,8.7
2022-12-28T20:48:09.761Z,8.8
2022-12-28T20:51:09.736Z,8.8
2022-12-28T20:54:09.651Z,8.7
2022-12-28T20:57:09.714Z,8.8
2022-12-28T21:00:09.944Z,8.8
2022-12-28T21:03:09.705Z,8.8
2022-12-28T21:06:09.840Z,8.8
2022-12-28T21:09:09.722Z,8.8
2022-12-28T21:12:09.737Z,8.8
2022-12-28T21:15:09.721Z,8.8
2022-12-28T21:18:09.678Z,8.9
2022-12-28T21:21:09.691Z,8.9
2022-12-28T21:24:09.739Z,8.9
2022-12-28T21:27:09.670Z,8.9
2022-12-28T21:30:09.734Z,8.9
2022-12-28T21:33:09.699Z,8.9
2022-12-28T21:36:09.710Z,9
2022-12-28T21:39:09.753Z,9.1
2022-12-28T21:42:09.902Z,9.1
2022-12-28T21:45:09.925Z,9.1
2022-12-28T21:48:09.739Z,9.1
2022-12-28T21:51:09.736Z,9.1
2022-12-28T21:54:09.782Z,9.1
2022-12-28T21:57:12.056Z,9.2
2022-12-28T22:00:11.149Z,9.2
2022-12-28T22:03:10.233Z,9.2
2022-12-28T22:06:09.798Z,9.2
2022-12-28T22:09:09.738Z,9.3
2022-12-28T22:12:09.784Z,9.3
2022-12-28T22:15:09.733Z,9.3
2022-12-28T22:18:15.745Z,9.4
2022-12-28T22:21:09.851Z,9.5
2022-12-28T22:24:09.746Z,9.4
2022-12-28T22:27:09.712Z,9.4
2022-12-28T22:30:09.997Z,9.4
2022-12-28T22:33:09.913Z,9.4
2022-12-28T22:36:09.777Z,9.6
2022-12-28T22:39:09.864Z,9.5
2022-12-28T22:42:09.916Z,9.6
2022-12-28T22:45:09.821Z,9.5
2022-12-28T22:48:09.947Z,9.5
2022-12-28T22:51:09.827Z,9.6
2022-12-28T22:54:10.066Z,9.6
2022-12-28T22:57:09.783Z,9.6
2022-12-28T23:00:11.815Z,9.6
2022-12-28T23:03:10.120Z,9.6
2022-12-28T23:06:09.837Z,9.6
2022-12-28T23:09:09.735Z,9.7
2022-12-28T23:12:09.750Z,9.8
2022-12-28T23:15:09.763Z,9.8
2022-12-28T23:18:09.888Z,9.7
2022-12-28T23:21:09.747Z,9.7
2022-12-28T23:24:09.716Z,9.7
2022-12-28T23:27:09.868Z,9.7
2022-12-28T23:30:09.847Z,9.7
2022-12-28T23:33:09.759Z,9.7
2022-12-28T23:36:09.751Z,9.7
2022-12-28T23:39:09.760Z,9.7
2022-12-28T23:42:09.664Z,9.6
2022-12-28T23:45:09.879Z,9.6
2022-12-28T23:48:09.762Z,9.5
2022-12-28T23:51:09.713Z,9.4
2022-12-28T23:54:09.744Z,9.4
2022-12-28T23:57:09.739Z,9.4
